createdAt,value
2017-12-14T22:04:35.051Z,71.30
2017-12-14T22:05:35.069Z,73.92
2017-12-14T22:06:35.083Z,76.20
2017-12-14T22:07:35.097Z,77.29
2017-12-14T22:08:35.122Z,79.47
2017-12-14T22:09:35.141Z,80.76
2017-12-14T22:10:35.154Z,81.43
2017-12-14T22:11:35.179Z,82.47
2017-12-14T22:12:35.191Z,82.66
2017-12-14T22:13:35.216Z,83.61
2017-12-14T22:14:35.231Z,84.17
2017-12-14T22:15:35.253Z,84.65
2017-12-14T22:16:35.266Z,84.74
2017-12-14T22:17:35.292Z,85.31
2017-12-14T22:18:35.306Z,85.31
2017-12-14T22:19:35.331Z,85.31
2017-12-14T22:20:35.345Z,86.26
2017-12-14T22:21:35.364Z,86.12
2017-12-14T22:22:35.387Z,86.41
2017-12-14T22:23:35.409Z,86.55
2017-12-14T22:24:35.421Z,86.31
2017-12-14T22:25:35.446Z,86.60
2017-12-14T22:26:35.465Z,87.16
2017-12-14T22:27:35.478Z,86.69
2017-12-14T22:28:35.503Z,87.16
2017-12-14T22:29:35.523Z,87.26
2017-12-14T22:30:35.536Z,87.45
2017-12-14T22:31:35.556Z,87.83
2017-12-14T22:32:36.260Z,87.54
2017-12-14T22:33:36.005Z,88.30
2017-12-14T22:34:35.904Z,88.40
2017-12-14T22:35:35.634Z,88.30
2017-12-14T22:36:35.656Z,88.49
2017-12-14T22:37:35.670Z,88.49
2017-12-14T22:38:35.693Z,88.40
2017-12-14T22:39:35.707Z,87.54
2017-12-14T22:40:35.732Z,87.83
2017-12-14T22:41:35.745Z,87.54
2017-12-14T22:42:35.768Z,88.11
2017-12-14T22:43:35.783Z,88.11
2017-12-14T22:44:35.808Z,89.34
2017-12-14T22:45:35.835Z,88.68
2017-12-14T22:46:35.843Z,88.21
2017-12-14T22:47:35.857Z,88.40
2017-12-14T22:48:36.512Z,88.40
2017-12-14T22:49:35.900Z,88.49
2017-12-14T22:50:35.911Z,88.78
2017-12-14T22:51:35.936Z,88.40
2017-12-14T22:52:35.953Z,88.68
2017-12-14T22:53:35.974Z,88.78
2017-12-14T22:54:35.990Z,89.15
2017-12-14T22:55:36.009Z,89.72
2017-12-14T22:56:36.023Z,89.72
2017-12-14T22:57:36.054Z,88.96
2017-12-14T22:58:36.062Z,89.25
2017-12-14T22:59:36.079Z,89.63
2017-12-14T23:00:36.106Z,89.25
2017-12-14T23:01:36.117Z,89.63
2017-12-14T23:02:36.140Z,89.91
2017-12-14T23:03:36.154Z,90.20
2017-12-14T23:04:36.178Z,90.67
2017-12-14T23:05:36.192Z,90.58
2017-12-14T23:06:36.218Z,90.58
2017-12-14T23:07:36.233Z,91.05
2017-12-14T23:08:36.246Z,90.95
2017-12-14T23:09:36.270Z,91.05
2017-12-14T23:10:36.282Z,91.05
2017-12-14T23:11:36.307Z,91.14
2017-12-14T23:12:36.319Z,91.24
2017-12-14T23:13:36.344Z,91.43
2017-12-14T23:14:36.355Z,91.24
2017-12-14T23:15:36.381Z,91.81
2017-12-14T23:16:36.393Z,91.71
2017-12-14T23:17:36.417Z,91.43
2017-12-14T23:18:36.429Z,91.52
2017-12-14T23:19:36.453Z,92.00
2017-12-14T23:20:42.752Z,92.47
2017-12-14T23:21:42.770Z,92.57
2017-12-14T23:22:42.782Z,92.00
2017-12-14T23:23:42.801Z,91.90
2017-12-14T23:24:42.827Z,91.81
2017-12-14T23:25:42.844Z,91.52
2017-12-14T23:26:42.857Z,91.62
2017-12-14T23:27:42.879Z,92.00
2017-12-14T23:28:42.893Z,92.38
2017-12-14T23:29:42.917Z,92.47
2017-12-14T23:30:42.929Z,91.90
2017-12-14T23:31:42.951Z,92.28
2017-12-14T23:32:42.966Z,92.09
2017-12-14T23:33:42.989Z,92.19
2017-12-14T23:34:43.004Z,92.09
2017-12-14T23:35:43.025Z,91.90
2017-12-14T23:36:43.038Z,92.28
2017-12-14T23:37:43.056Z,92.66
2017-12-14T23:38:43.081Z,92.19
2017-12-14T23:39:43.098Z,92.47
2017-12-14T23:40:43.111Z,92.00
2017-12-14T23:41:43.129Z,92.47
2017-12-14T23:42:43.154Z,92.28
2017-12-14T23:43:43.166Z,92.38
2017-12-14T23:44:43.189Z,92.09
2017-12-14T23:45:43.208Z,92.38
2017-12-14T23:46:43.262Z,92.66
2017-12-14T23:47:43.238Z,92.66
2017-12-14T23:48:43.264Z,92.66
2017-12-14T23:49:43.283Z,92.76
2017-12-14T23:50:43.293Z,92.76
2017-12-14T23:51:43.341Z,93.32
2017-12-14T23:52:43.335Z,93.04
2017-12-14T23:53:43.347Z,92.94
2017-12-14T23:54:43.373Z,92.85
2017-12-14T23:55:43.383Z,93.23
2017-12-14T23:56:43.407Z,93.42
2017-12-14T23:57:43.420Z,92.85
2017-12-14T23:58:43.444Z,92.85
2017-12-14T23:59:43.455Z,93.32
